createdAt,value
2018-07-23T00:00:43.224Z,28.73
2018-07-23T00:03:27.335Z,32.97
2018-07-23T00:06:08.789Z,29.07
2018-07-23T00:08:50.188Z,27.97
2018-07-23T00:11:32.084Z,30.97
2018-07-23T00:14:14.206Z,28.87
2018-07-23T00:16:56.740Z,25.03
2018-07-23T00:19:38.195Z,24.70
2018-07-23T00:22:19.644Z,27.27
2018-07-23T00:25:01.871Z,26.23
2018-07-23T00:27:43.511Z,24.47
2018-07-23T00:30:26.223Z,24.90
2018-07-23T00:33:08.027Z,23.63
2018-07-23T00:35:49.535Z,23.77
2018-07-23T00:38:32.105Z,24.63
2018-07-23T00:41:14.150Z,22.87
2018-07-23T00:43:56.590Z,25.53
2018-07-23T00:46:38.176Z,22.03
2018-07-23T00:49:20.282Z,21.73
2018-07-23T00:52:02.330Z,22.27
2018-07-23T00:54:47.801Z,23.57
2018-07-23T00:57:29.234Z,23.27
2018-07-23T01:00:10.685Z,23.83
2018-07-23T01:02:52.983Z,25.50
2018-07-23T01:05:36.216Z,23.00
2018-07-23T01:08:17.645Z,24.67
2018-07-23T01:10:59.242Z,25.73
2018-07-23T01:13:40.612Z,24.20
2018-07-23T01:16:23.066Z,23.30
2018-07-23T01:19:04.852Z,26.00
2018-07-23T01:21:46.311Z,22.80
2018-07-23T01:24:27.852Z,23.80
2018-07-23T01:27:09.424Z,25.60
2018-07-23T01:29:50.926Z,25.20
2018-07-23T01:32:32.528Z,23.00
2018-07-23T01:35:14.047Z,25.03
2018-07-23T01:37:57.335Z,24.67
2018-07-23T01:40:38.924Z,22.73
2018-07-23T01:43:20.551Z,24.63
2018-07-23T01:46:01.952Z,26.37
2018-07-23T01:48:43.377Z,29.17
2018-07-23T01:51:24.979Z,24.73
2018-07-23T01:54:06.408Z,26.37
2018-07-23T01:56:47.936Z,25.63
2018-07-23T02:02:54.120Z,26.53
2018-07-23T02:05:35.573Z,26.57
2018-07-23T02:08:17.100Z,26.73
2018-07-23T02:10:59.264Z,26.77
2018-07-23T02:13:40.783Z,27.53
2018-07-23T02:16:23.441Z,25.30
2018-07-23T02:19:05.057Z,26.10
2018-07-23T02:21:46.498Z,29.40
2018-07-23T02:24:27.823Z,26.63
2018-07-23T02:27:09.276Z,25.83
2018-07-23T02:29:52.439Z,26.30
2018-07-23T02:32:34.048Z,29.53
2018-07-23T02:35:15.623Z,26.70
2018-07-23T02:37:57.065Z,26.53
2018-07-23T02:40:38.651Z,25.77
2018-07-23T02:43:21.130Z,26.20
2018-07-23T02:46:02.709Z,25.77
2018-07-23T02:48:44.046Z,26.73
2018-07-23T02:51:26.139Z,27.13
2018-07-23T02:54:07.540Z,26.73
2018-07-23T02:56:50.933Z,27.00
2018-07-23T02:59:32.808Z,28.50
2018-07-23T03:02:14.263Z,25.37
2018-07-23T03:04:55.737Z,28.87
2018-07-23T03:07:37.346Z,26.97
2018-07-23T03:10:19.736Z,27.73
2018-07-23T03:13:01.184Z,25.07
2018-07-23T03:15:42.797Z,27.20
2018-07-23T03:18:24.830Z,25.00
2018-07-23T03:21:06.420Z,26.30
2018-07-23T03:23:48.001Z,31.37
2018-07-23T03:26:29.647Z,28.73
2018-07-23T03:29:11.466Z,30.23
2018-07-23T03:31:54.770Z,28.07
2018-07-23T03:34:36.220Z,29.50
2018-07-23T03:37:17.604Z,27.67
2018-07-23T03:39:59.461Z,27.60
2018-07-23T03:42:41.079Z,28.03
2018-07-23T03:45:23.415Z,29.10
2018-07-23T03:48:04.839Z,27.30
2018-07-23T03:50:46.523Z,27.57
2018-07-23T03:53:27.988Z,28.40
2018-07-23T03:56:09.325Z,24.83
2018-07-23T03:58:52.626Z,26.50
2018-07-23T04:01:34.035Z,27.77
2018-07-23T04:04:17.494Z,29.37
2018-07-23T04:06:59.189Z,28.70
2018-07-23T04:09:40.861Z,26.33
2018-07-23T04:12:23.741Z,25.80
2018-07-23T04:15:05.828Z,26.80
2018-07-23T04:18:03.906Z,27.63
2018-07-23T04:20:45.493Z,27.17
2018-07-23T04:23:27.044Z,28.60
2018-07-23T04:26:09.163Z,29.20
2018-07-23T04:28:51.446Z,29.30
2018-07-23T04:31:33.088Z,25.33
2018-07-23T04:34:14.571Z,22.90
2018-07-23T04:36:56.028Z,24.40
2018-07-23T04:39:37.728Z,25.63
2018-07-23T04:42:20.615Z,24.57
2018-07-23T04:45:02.653Z,22.97
2018-07-23T04:47:44.290Z,24.93
2018-07-23T04:50:25.798Z,25.03
2018-07-23T04:53:07.430Z,25.60
2018-07-23T04:55:49.712Z,29.30
2018-07-23T04:58:31.200Z,26.37
2018-07-23T05:01:12.754Z,28.83
2018-07-23T05:03:54.706Z,31.53
2018-07-23T05:06:36.353Z,28.00
2018-07-23T05:09:17.876Z,30.40
2018-07-23T05:12:00.442Z,31.23
2018-07-23T05:14:42.622Z,32.07
2018-07-23T05:17:24.841Z,29.60
2018-07-23T05:20:07.216Z,32.10
2018-07-23T05:22:49.489Z,30.60
2018-07-23T05:25:31.195Z,33.47
2018-07-23T05:28:12.806Z,32.67
2018-07-23T05:30:55.508Z,30.97
2018-07-23T05:33:39.957Z,30.87
2018-07-23T05:36:22.437Z,30.10
2018-07-23T05:39:08.192Z,31.87
2018-07-23T05:41:50.907Z,36.43
2018-07-23T05:44:32.442Z,30.80
2018-07-23T05:47:14.064Z,31.50
2018-07-23T05:49:55.555Z,33.30
2018-07-23T05:52:37.080Z,33.23
2018-07-23T05:55:19.590Z,31.50
2018-07-23T05:58:02.290Z,31.47
2018-07-23T06:00:43.828Z,32.27
2018-07-23T06:03:25.440Z,35.57
2018-07-23T06:06:07.116Z,33.33
2018-07-23T06:08:49.818Z,30.47
2018-07-23T06:11:32.215Z,31.30
2018-07-23T06:14:15.264Z,33.17
2018-07-23T06:16:56.692Z,29.90
2018-07-23T06:19:38.301Z,30.23
2018-07-23T06:22:20.805Z,30.33
2018-07-23T06:25:02.238Z,28.57
2018-07-23T06:27:44.425Z,30.80
2018-07-23T06:30:25.942Z,31.90
2018-07-23T06:33:12.891Z,30.13
2018-07-23T06:35:54.923Z,31.93
2018-07-23T06:38:37.176Z,30.07
2018-07-23T06:41:23.711Z,33.47
2018-07-23T06:44:05.868Z,27.80
2018-07-23T06:46:47.335Z,27.77
2018-07-23T06:49:29.465Z,28.13
2018-07-23T06:52:11.127Z,32.07
2018-07-23T06:54:53.493Z,31.13
2018-07-23T06:57:38.596Z,30.40
2018-07-23T07:00:25.638Z,27.77
2018-07-23T07:03:07.431Z,29.50
2018-07-23T07:05:49.640Z,26.67
2018-07-23T07:08:31.166Z,28.57
2018-07-23T07:11:12.612Z,28.77
2018-07-23T07:13:54.672Z,30.17
2018-07-23T07:16:36.124Z,28.60
2018-07-23T07:19:17.653Z,25.23
2018-07-23T07:21:59.228Z,28.90
2018-07-23T07:24:40.535Z,24.47
2018-07-23T07:27:22.399Z,30.77
2018-07-23T07:30:06.167Z,27.63
2018-07-23T07:32:48.326Z,23.57
2018-07-23T07:35:30.240Z,23.87
2018-07-23T07:38:15.328Z,22.90
2018-07-23T07:40:58.225Z,25.93
2018-07-23T07:43:40.525Z,22.60
2018-07-23T07:46:23.699Z,25.43
2018-07-23T07:49:05.012Z,25.30
2018-07-23T07:51:46.540Z,26.13
2018-07-23T07:54:28.029Z,26.53
2018-07-23T07:57:09.535Z,22.23
2018-07-23T07:59:52.484Z,28.60
2018-07-23T08:02:34.075Z,27.33
2018-07-23T08:05:17.623Z,26.50
2018-07-23T08:07:59.534Z,21.70
2018-07-23T08:10:41.038Z,24.30
2018-07-23T08:13:24.042Z,21.37
2018-07-23T08:16:05.662Z,24.00
2018-07-23T08:18:48.024Z,22.23
2018-07-23T08:21:29.960Z,18.83
2018-07-23T08:24:11.363Z,21.70
2018-07-23T08:26:53.663Z,22.00
2018-07-23T08:29:35.457Z,22.03
2018-07-23T08:32:17.076Z,19.57
2018-07-23T08:34:59.353Z,20.63
2018-07-23T08:37:41.273Z,19.67
2018-07-23T08:40:25.039Z,19.03
2018-07-23T08:43:06.766Z,23.60
2018-07-23T08:45:49.560Z,23.47
2018-07-23T08:48:31.827Z,18.80
2018-07-23T08:51:13.581Z,18.93
2018-07-23T08:53:55.196Z,20.57
2018-07-23T08:56:36.692Z,18.37
2018-07-23T08:59:18.907Z,20.73
2018-07-23T09:02:00.778Z,18.60
2018-07-23T09:04:42.931Z,16.43
2018-07-23T09:07:25.237Z,24.53
2018-07-23T09:10:07.028Z,18.77
2018-07-23T09:12:49.576Z,16.50
2018-07-23T09:15:31.068Z,21.30
2018-07-23T09:18:12.655Z,16.47
2018-07-23T09:20:54.583Z,18.57
2018-07-23T09:23:36.099Z,16.83
2018-07-23T09:26:17.532Z,19.40
2018-07-23T09:28:59.412Z,20.47
2018-07-23T09:31:41.046Z,18.40
2018-07-23T09:34:23.941Z,22.73
2018-07-23T09:37:05.452Z,20.07
2018-07-23T09:39:49.065Z,19.17
2018-07-23T09:42:31.011Z,14.93
2018-07-23T09:45:12.468Z,18.37
2018-07-23T09:47:56.123Z,17.37
2018-07-23T09:50:39.845Z,15.93
2018-07-23T09:53:23.348Z,24.60
2018-07-23T09:56:04.949Z,25.63
2018-07-23T09:58:47.017Z,18.30
2018-07-23T10:01:30.043Z,18.83
2018-07-23T10:04:11.525Z,19.57
2018-07-23T10:06:55.013Z,15.50
2018-07-23T10:09:36.664Z,17.07
2018-07-23T10:12:18.131Z,15.90
2018-07-23T10:14:59.936Z,19.00
2018-07-23T10:17:41.345Z,19.90
2018-07-23T10:20:24.635Z,16.37
2018-07-23T10:23:06.097Z,16.83
2018-07-23T10:25:47.716Z,15.87
2018-07-23T10:28:29.351Z,18.03
2018-07-23T10:31:12.237Z,15.77
2018-07-23T10:33:54.694Z,18.23
2018-07-23T10:36:36.159Z,16.53
2018-07-23T10:39:17.591Z,15.93
2018-07-23T10:41:59.590Z,19.83
2018-07-23T10:44:41.400Z,17.20
2018-07-23T10:47:24.427Z,13.73
2018-07-23T10:50:05.978Z,14.30
2018-07-23T10:52:52.352Z,15.10
2018-07-23T10:55:34.343Z,17.17
2018-07-23T10:58:16.004Z,13.20
2018-07-23T11:00:58.672Z,14.33
2018-07-23T11:03:40.155Z,15.27
2018-07-23T11:06:24.244Z,14.67
2018-07-23T11:09:08.304Z,14.40
2018-07-23T11:11:53.361Z,18.47
2018-07-23T11:14:35.036Z,16.20
2018-07-23T11:17:16.678Z,18.77
2018-07-23T11:20:00.427Z,15.40
2018-07-23T11:22:42.136Z,16.77
2018-07-23T11:25:39.177Z,17.30
2018-07-23T11:28:06.520Z,18.20
2018-07-23T11:30:47.960Z,16.77
2018-07-23T11:33:29.528Z,18.27
2018-07-23T11:36:11.608Z,17.17
2018-07-23T11:38:55.589Z,14.70
2018-07-23T11:41:37.483Z,15.40
2018-07-23T11:44:20.812Z,16.00
2018-07-23T11:47:05.968Z,15.77
2018-07-23T11:49:50.412Z,22.87
2018-07-23T11:52:32.226Z,18.13
2018-07-23T11:55:14.317Z,22.47
2018-07-23T11:57:56.448Z,13.60
2018-07-23T12:00:37.954Z,19.03
2018-07-23T12:03:20.509Z,15.80
2018-07-23T12:06:02.319Z,14.30
2018-07-23T12:08:43.899Z,16.57
2018-07-23T12:11:25.452Z,14.60
2018-07-23T12:14:07.809Z,16.40
2018-07-23T12:16:50.409Z,14.43
2018-07-23T12:19:31.932Z,14.53
2018-07-23T12:22:14.389Z,13.20
2018-07-23T12:24:57.135Z,13.80
2018-07-23T12:27:40.053Z,15.80
2018-07-23T12:30:23.293Z,15.13
2018-07-23T12:33:04.889Z,13.33
2018-07-23T12:35:46.393Z,13.50
2018-07-23T12:38:27.760Z,10.90
2018-07-23T12:41:09.520Z,11.23
2018-07-23T12:43:54.215Z,13.17
2018-07-23T12:46:35.783Z,14.80
2018-07-23T12:49:17.917Z,13.10
2018-07-23T12:51:59.460Z,20.87
2018-07-23T12:54:42.223Z,14.97
2018-07-23T12:57:24.570Z,10.67
2018-07-23T13:00:07.138Z,12.70
2018-07-23T13:02:49.563Z,14.63
2018-07-23T13:05:33.205Z,17.87
2018-07-23T13:08:15.308Z,12.50
2018-07-23T13:10:57.061Z,15.23
2018-07-23T13:13:38.479Z,13.67
2018-07-23T13:16:22.215Z,15.13
2018-07-23T13:19:04.961Z,14.00
2018-07-23T13:21:47.675Z,11.73
2018-07-23T13:24:30.388Z,12.30
2018-07-23T13:27:12.191Z,11.90
2018-07-23T13:29:58.013Z,13.37
2018-07-23T13:32:39.528Z,14.23
2018-07-23T13:35:23.980Z,17.37
2018-07-23T13:38:06.668Z,12.33
2018-07-23T13:40:48.421Z,15.40
2018-07-23T13:43:30.209Z,12.60
2018-07-23T13:46:13.241Z,13.33
2018-07-23T13:48:55.446Z,13.30
2018-07-23T13:51:37.772Z,14.63
2018-07-23T13:54:20.714Z,12.70
2018-07-23T13:57:03.986Z,35.93
2018-07-23T13:59:48.303Z,35.00
2018-07-23T14:02:29.851Z,18.17
2018-07-23T14:05:11.532Z,11.70
2018-07-23T14:07:54.728Z,14.83
2018-07-23T14:10:36.360Z,10.70
2018-07-23T14:13:19.607Z,10.73
2018-07-23T14:16:05.017Z,16.13
2018-07-23T14:18:46.523Z,11.27
2018-07-23T14:21:28.325Z,12.40
2018-07-23T14:24:09.647Z,12.30
2018-07-23T14:26:52.846Z,12.43
2018-07-23T14:29:35.503Z,10.50
2018-07-23T14:32:17.323Z,10.23
2018-07-23T14:34:59.543Z,12.33
2018-07-23T14:37:43.016Z,13.30
2018-07-23T14:40:25.558Z,9.83
2018-07-23T14:43:07.363Z,11.17
2018-07-23T14:45:53.472Z,9.50
2018-07-23T14:48:35.270Z,12.13
2018-07-23T14:51:17.040Z,16.70
2018-07-23T14:53:58.810Z,12.43
2018-07-23T14:56:40.377Z,11.97
2018-07-23T14:59:22.652Z,12.40
2018-07-23T15:02:04.388Z,10.97
2018-07-23T15:04:45.991Z,9.77
2018-07-23T15:07:27.408Z,12.67
2018-07-23T15:10:08.964Z,13.03
2018-07-23T15:12:51.459Z,10.80
2018-07-23T15:15:33.224Z,12.17
2018-07-23T15:18:15.070Z,11.27
2018-07-23T15:20:57.639Z,13.23
2018-07-23T15:23:39.281Z,11.17
2018-07-23T15:26:21.640Z,9.17
2018-07-23T15:29:03.386Z,11.87
2018-07-23T15:31:46.087Z,9.63
2018-07-23T15:34:27.740Z,9.17
2018-07-23T15:37:09.484Z,10.20
2018-07-23T15:39:51.695Z,10.30
2018-07-23T15:42:34.832Z,12.80
2018-07-23T15:45:17.192Z,11.97
2018-07-23T15:47:59.995Z,8.57
2018-07-23T15:50:41.744Z,16.63
2018-07-23T15:53:24.703Z,12.63
2018-07-23T15:56:07.046Z,9.90
2018-07-23T15:58:48.652Z,13.50
2018-07-23T16:01:31.805Z,10.10
2018-07-23T16:04:13.584Z,8.93
2018-07-23T16:06:55.781Z,12.57
2018-07-23T16:09:37.752Z,9.90
2018-07-23T16:12:21.554Z,9.97
2018-07-23T16:15:04.355Z,10.37
2018-07-23T16:17:45.994Z,9.17
2018-07-23T16:20:27.322Z,8.07
2018-07-23T16:23:09.827Z,8.47
2018-07-23T16:25:53.264Z,7.73
2018-07-23T16:28:34.977Z,9.53
2018-07-23T16:31:16.847Z,6.37
2018-07-23T16:33:58.588Z,8.73
2018-07-23T16:36:40.151Z,8.83
2018-07-23T16:39:22.345Z,10.23
2018-07-23T16:42:06.085Z,6.20
2018-07-23T16:44:47.778Z,7.93
2018-07-23T16:47:29.352Z,7.43
2018-07-23T16:50:12.407Z,16.43
2018-07-23T16:52:55.008Z,7.87
2018-07-23T16:55:36.669Z,7.43
2018-07-23T16:58:18.172Z,9.07
2018-07-23T17:01:00.687Z,12.27
2018-07-23T17:03:42.589Z,9.67
2018-07-23T17:06:24.691Z,5.73
2018-07-23T17:09:12.268Z,8.50
2018-07-23T17:11:54.947Z,10.13
2018-07-23T17:14:36.498Z,6.20
2018-07-23T17:17:19.197Z,6.90
2018-07-23T17:20:01.675Z,8.43
2018-07-23T17:22:43.019Z,5.90
2018-07-23T17:25:26.217Z,6.37
2018-07-23T17:28:07.983Z,7.93
2018-07-23T17:30:49.577Z,6.33
2018-07-23T17:33:31.205Z,7.93
2018-07-23T17:36:12.997Z,6.60
2018-07-23T17:38:56.176Z,8.13
2018-07-23T17:41:37.932Z,6.00
2018-07-23T17:44:19.471Z,5.63
2018-07-23T17:47:01.201Z,6.40
2018-07-23T17:49:42.675Z,8.37
2018-07-23T17:52:24.895Z,6.67
2018-07-23T17:55:07.987Z,8.00
2018-07-23T17:57:52.370Z,6.03
2018-07-23T18:00:34.535Z,5.87
2018-07-23T18:03:17.311Z,11.30
2018-07-23T18:06:00.445Z,9.23
2018-07-23T18:08:42.142Z,5.00
2018-07-23T18:11:24.381Z,7.20
2018-07-23T18:14:06.077Z,7.07
2018-07-23T18:16:47.519Z,9.57
2018-07-23T18:19:30.859Z,11.33
2018-07-23T18:22:12.303Z,6.90
2018-07-23T18:24:55.407Z,9.27
2018-07-23T18:27:37.447Z,5.53
2018-07-23T18:30:19.107Z,8.93
2018-07-23T18:33:01.327Z,6.53
2018-07-23T18:35:42.962Z,6.60
2018-07-23T18:38:24.891Z,7.73
2018-07-23T18:41:06.311Z,11.07
2018-07-23T18:43:47.960Z,10.30
2018-07-23T18:46:31.150Z,11.67
2018-07-23T18:49:31.510Z,10.23
2018-07-23T18:52:14.628Z,15.00
2018-07-23T18:54:58.367Z,12.93
2018-07-23T18:57:40.539Z,14.07
2018-07-23T19:00:22.312Z,19.87
2018-07-23T19:03:09.252Z,15.73
2018-07-23T19:05:53.126Z,15.83
2018-07-23T19:08:35.225Z,11.57
2018-07-23T19:11:16.834Z,13.70
2018-07-23T19:13:58.585Z,12.67
2018-07-23T19:16:41.043Z,14.30
2018-07-23T19:19:22.799Z,13.53
2018-07-23T19:22:05.085Z,16.60
2018-07-23T19:24:46.685Z,13.13
2018-07-23T19:27:28.644Z,12.80
2018-07-23T19:30:10.663Z,12.67
2018-07-23T19:32:52.136Z,13.87
2018-07-23T19:35:34.144Z,10.47
2018-07-23T19:38:17.774Z,13.87
2018-07-23T19:40:59.816Z,13.23
2018-07-23T19:43:41.744Z,14.27
2018-07-23T19:46:23.449Z,9.20
2018-07-23T19:49:05.885Z,9.33
2018-07-23T19:51:47.403Z,10.83
2018-07-23T19:54:28.999Z,9.60
2018-07-23T19:57:11.022Z,8.43
2018-07-23T19:59:52.755Z,10.30
2018-07-23T20:02:34.958Z,10.97
2018-07-23T20:05:17.216Z,8.80
2018-07-23T20:07:59.082Z,8.10
2018-07-23T20:10:40.809Z,10.20
2018-07-23T20:13:22.375Z,6.77
2018-07-23T20:16:06.154Z,13.87
2018-07-23T20:18:48.619Z,9.80
2018-07-23T20:21:30.219Z,14.00
2018-07-23T20:24:12.111Z,13.27
2018-07-23T20:26:53.411Z,8.53
2018-07-23T20:29:36.808Z,11.20
2018-07-23T20:32:19.067Z,13.20
2018-07-23T20:35:00.469Z,11.57
2018-07-23T20:37:42.715Z,12.93
2018-07-23T20:40:25.224Z,13.23
2018-07-23T20:43:07.666Z,12.43
2018-07-23T20:45:49.434Z,12.53
2018-07-23T20:48:30.987Z,14.00
2018-07-23T20:51:13.646Z,11.47
2018-07-23T20:53:56.031Z,11.37
2018-07-23T20:56:37.774Z,12.57
2018-07-23T20:59:19.075Z,12.43
2018-07-23T21:02:00.740Z,9.43
2018-07-23T21:04:42.870Z,9.97
2018-07-23T21:07:24.340Z,10.40
2018-07-23T21:10:07.718Z,10.00
2018-07-23T21:12:49.278Z,9.00
2018-07-23T21:15:36.154Z,9.50
2018-07-23T21:18:17.789Z,13.30
2018-07-23T21:20:59.326Z,9.77
2018-07-23T21:23:42.803Z,9.87
2018-07-23T21:26:24.124Z,9.63
2018-07-23T21:29:05.739Z,12.43
2018-07-23T21:31:47.298Z,15.87
2018-07-23T21:34:28.866Z,10.43
2018-07-23T21:37:12.640Z,12.03
2018-07-23T21:39:55.930Z,11.60
2018-07-23T21:42:37.536Z,15.43
2018-07-23T21:45:20.910Z,12.27
2018-07-23T21:48:02.797Z,10.73
2018-07-23T21:50:46.969Z,15.33
2018-07-23T21:53:28.514Z,13.90
2018-07-23T21:56:10.891Z,13.67
2018-07-23T21:58:52.298Z,12.73
2018-07-23T22:01:33.845Z,9.23
2018-07-23T22:04:17.032Z,10.47
2018-07-23T22:06:58.579Z,13.27
2018-07-23T22:09:40.190Z,11.20
2018-07-23T22:12:21.645Z,11.10
2018-07-23T22:15:03.178Z,10.23
2018-07-23T22:17:45.779Z,12.60
2018-07-23T22:20:27.399Z,11.63
2018-07-23T22:23:09.842Z,13.20
2018-07-23T22:25:55.656Z,13.37
2018-07-23T22:28:38.176Z,12.17
2018-07-23T22:31:20.824Z,13.07
2018-07-23T22:34:03.359Z,11.20
2018-07-23T22:36:45.882Z,13.67
2018-07-23T22:39:27.477Z,10.40
2018-07-23T22:42:14.187Z,14.13
2018-07-23T22:44:55.602Z,12.37
2018-07-23T22:47:37.126Z,10.17
2018-07-23T22:50:19.342Z,14.30
2018-07-23T22:53:01.768Z,13.63
2018-07-23T22:55:44.458Z,14.83
2018-07-23T22:58:27.210Z,11.53
2018-07-23T23:01:08.573Z,15.40
2018-07-23T23:03:50.128Z,9.50
2018-07-23T23:06:31.484Z,10.37
2018-07-23T23:09:13.020Z,10.37
2018-07-23T23:11:54.589Z,11.60
2018-07-23T23:14:35.874Z,16.87
2018-07-23T23:17:17.716Z,10.67
2018-07-23T23:19:59.135Z,15.47
2018-07-23T23:22:40.576Z,10.17
2018-07-23T23:25:22.182Z,11.47
2018-07-23T23:28:05.720Z,14.23
2018-07-23T23:30:48.998Z,13.53
2018-07-23T23:33:30.599Z,13.27
2018-07-23T23:36:12.182Z,11.23
2018-07-23T23:38:53.634Z,18.00
2018-07-23T23:41:35.058Z,22.43
2018-07-23T23:44:17.489Z,12.43
2018-07-23T23:46:59.049Z,14.00
2018-07-23T23:49:40.570Z,14.37
2018-07-23T23:52:22.105Z,12.77
2018-07-23T23:55:03.533Z,12.73
2018-07-23T23:57:47.424Z,16.90
